Forside
METAR-TAF:

METAR-TAF

Lufthavne :

Taylor County Airport

Medford, Wisconsin, USA

Breddekreds: 45-06-04N, længdekreds: 090-18-12W, højde: 448 m

Aktuelle vejr

Denne rapport blev lavet for 13 minutter siden, kl. 00:55 UTC
Vind 4 kt fra vestsydvest
Temperatur -20°C
Fugtighed 77%
Tryk 1020 hPa
Sigt: 16.1 km
skyfri

METAR: KMDZ 110055Z AUTO 25004KT 10SM CLR M20/M23 A3012 RMK AO2 T12021231

Tid: 19:08 (01:08 UTC)


TAF: fraværende

Vejrobservationer og prognoser fra mere end 4000 lufthavne (METAR og TAF).

De gule og røde prikker repræsenterer de meteorologiske stationer.

Flyt musen over at se navnet på stationen.

Så klik over at se vejr observationer og prognoser.

At skifte det kort: Klik på de grønne knapper med et sort kors for at zoome ind; på den grønne knap med en bindestreg for at zoome ud; eller på de grønne pile for tilstødende kort.


METAR-TAF: